sensor_id;sensor_type;location;lat;lon;timestamp;P1;durP1;ratioP1;P2;durP2;ratioP2
7667;SDS011;3876;42.204;24.686;2022-07-18T00:01:42;1.47;;;1.37;;
7667;SDS011;3876;42.204;24.686;2022-07-18T00:04:09;1.90;;;1.40;;
7667;SDS011;3876;42.204;24.686;2022-07-18T00:06:35;1.47;;;1.37;;
7667;SDS011;3876;42.204;24.686;2022-07-18T00:09:02;1.33;;;1.33;;
7667;SDS011;3876;42.204;24.686;2022-07-18T00:11:29;1.17;;;1.17;;
7667;SDS011;3876;42.204;24.686;2022-07-18T00:13:56;1.40;;;1.40;;
7667;SDS011;3876;42.204;24.686;2022-07-18T00:16:23;3.33;;;1.77;;
7667;SDS011;3876;42.204;24.686;2022-07-18T00:18:51;2.87;;;1.43;;
7667;SDS011;3876;42.204;24.686;2022-07-18T00:21:20;1.10;;;1.10;;
7667;SDS011;3876;42.204;24.686;2022-07-18T00:23:47;1.57;;;1.47;;
7667;SDS011;3876;42.204;24.686;2022-07-18T00:26:14;1.37;;;1.37;;
7667;SDS011;3876;42.204;24.686;2022-07-18T00:28:40;1.40;;;1.40;;
7667;SDS011;3876;42.204;24.686;2022-07-18T00:31:07;1.60;;;1.43;;
7667;SDS011;3876;42.204;24.686;2022-07-18T00:33:34;2.53;;;2.00;;
7667;SDS011;3876;42.204;24.686;2022-07-18T00:36:02;3.00;;;1.87;;
7667;SDS011;3876;42.204;24.686;2022-07-18T00:38:29;1.80;;;1.80;;
7667;SDS011;3876;42.204;24.686;2022-07-18T00:40:56;2.07;;;1.80;;
7667;SDS011;3876;42.204;24.686;2022-07-18T00:43:23;1.83;;;1.47;;
7667;SDS011;3876;42.204;24.686;2022-07-18T00:45:51;1.90;;;1.70;;
7667;SDS011;3876;42.204;24.686;2022-07-18T00:48:18;2.00;;;1.20;;
7667;SDS011;3876;42.204;24.686;2022-07-18T00:50:46;1.50;;;1.40;;
7667;SDS011;3876;42.204;24.686;2022-07-18T00:53:14;1.63;;;1.53;;
7667;SDS011;3876;42.204;24.686;2022-07-18T00:55:45;1.40;;;1.30;;
7667;SDS011;3876;42.204;24.686;2022-07-18T00:58:12;1.73;;;1.20;;
7667;SDS011;3876;42.204;24.686;2022-07-18T01:00:39;1.30;;;1.30;;
7667;SDS011;3876;42.204;24.686;2022-07-18T01:03:24;1.70;;;1.60;;
7667;SDS011;3876;42.204;24.686;2022-07-18T01:05:52;1.93;;;1.83;;
7667;SDS011;3876;42.204;24.686;2022-07-18T01:08:20;2.40;;;1.20;;
7667;SDS011;3876;42.204;24.686;2022-07-18T01:10:47;0.90;;;0.90;;
7667;SDS011;3876;42.204;24.686;2022-07-18T01:13:15;1.47;;;1.37;;
7667;SDS011;3876;42.204;24.686;2022-07-18T01:15:42;1.30;;;1.30;;
7667;SDS011;3876;42.204;24.686;2022-07-18T01:18:09;1.03;;;1.03;;
7667;SDS011;3876;42.204;24.686;2022-07-18T01:20:37;1.80;;;1.30;;
7667;SDS011;3876;42.204;24.686;2022-07-18T01:23:04;1.37;;;1.33;;
7667;SDS011;3876;42.204;24.686;2022-07-18T01:25:31;8.00;;;1.37;;
7667;SDS011;3876;42.204;24.686;2022-07-18T01:27:57;1.50;;;1.40;;
7667;SDS011;3876;42.204;24.686;2022-07-18T01:30:24;1.40;;;1.30;;
7667;SDS011;3876;42.204;24.686;2022-07-18T01:32:55;1.50;;;1.50;;
7667;SDS011;3876;42.204;24.686;2022-07-18T01:35:23;1.40;;;1.40;;
7667;SDS011;3876;42.204;24.686;2022-07-18T01:37:52;1.20;;;1.20;;
7667;SDS011;3876;42.204;24.686;2022-07-18T01:40:19;5.10;;;1.20;;
7667;SDS011;3876;42.204;24.686;2022-07-18T01:42:47;1.30;;;1.20;;
7667;SDS011;3876;42.204;24.686;2022-07-18T01:45:13;1.17;;;1.17;;
7667;SDS011;3876;42.204;24.686;2022-07-18T01:47:41;1.53;;;1.53;;
7667;SDS011;3876;42.204;24.686;2022-07-18T01:50:08;1.80;;;1.20;;
7667;SDS011;3876;42.204;24.686;2022-07-18T01:52:36;2.73;;;1.50;;
7667;SDS011;3876;42.204;24.686;2022-07-18T01:55:05;2.30;;;1.33;;
7667;SDS011;3876;42.204;24.686;2022-07-18T01:57:34;1.63;;;1.53;;
7667;SDS011;3876;42.204;24.686;2022-07-18T02:00:01;2.00;;;1.53;;
7667;SDS011;3876;42.204;24.686;2022-07-18T02:02:28;1.73;;;1.60;;
7667;SDS011;3876;42.204;24.686;2022-07-18T02:04:54;1.47;;;1.47;;
7667;SDS011;3876;42.204;24.686;2022-07-18T02:07:29;1.53;;;1.40;;
7667;SDS011;3876;42.204;24.686;2022-07-18T02:09:57;1.13;;;1.13;;
7667;SDS011;3876;42.204;24.686;2022-07-18T02:12:26;1.80;;;1.70;;
7667;SDS011;3876;42.204;24.686;2022-07-18T02:14:53;1.40;;;1.40;;
7667;SDS011;3876;42.204;24.686;2022-07-18T02:17:20;1.70;;;1.60;;
7667;SDS011;3876;42.204;24.686;2022-07-18T02:19:47;2.70;;;1.40;;
7667;SDS011;3876;42.204;24.686;2022-07-18T02:22:14;1.60;;;1.50;;
7667;SDS011;3876;42.204;24.686;2022-07-18T02:24:41;1.27;;;1.20;;
7667;SDS011;3876;42.204;24.686;2022-07-18T02:27:08;1.33;;;1.23;;
7667;SDS011;3876;42.204;24.686;2022-07-18T02:29:37;13.83;;;2.20;;
7667;SDS011;3876;42.204;24.686;2022-07-18T02:32:04;5.67;;;2.20;;
7667;SDS011;3876;42.204;24.686;2022-07-18T02:34:31;1.60;;;1.60;;
7667;SDS011;3876;42.204;24.686;2022-07-18T02:36:59;1.97;;;1.87;;
7667;SDS011;3876;42.204;24.686;2022-07-18T02:39:26;2.40;;;2.30;;
7667;SDS011;3876;42.204;24.686;2022-07-18T02:41:53;2.13;;;2.03;;
7667;SDS011;3876;42.204;24.686;2022-07-18T02:44:21;2.07;;;1.97;;
7667;SDS011;3876;42.204;24.686;2022-07-18T02:46:49;1.50;;;1.50;;
7667;SDS011;3876;42.204;24.686;2022-07-18T02:49:16;1.97;;;1.83;;
7667;SDS011;3876;42.204;24.686;2022-07-18T02:51:53;2.37;;;2.23;;
7667;SDS011;3876;42.204;24.686;2022-07-18T02:54:24;2.23;;;2.03;;
7667;SDS011;3876;42.204;24.686;2022-07-18T02:56:52;2.30;;;2.30;;
7667;SDS011;3876;42.204;24.686;2022-07-18T02:59:19;1.97;;;1.87;;
7667;SDS011;3876;42.204;24.686;2022-07-18T03:01:47;2.60;;;2.10;;
7667;SDS011;3876;42.204;24.686;2022-07-18T03:04:16;1.80;;;1.70;;
7667;SDS011;3876;42.204;24.686;2022-07-18T03:06:43;2.43;;;2.33;;
7667;SDS011;3876;42.204;24.686;2022-07-18T03:09:11;2.57;;;2.37;;
7667;SDS011;3876;42.204;24.686;2022-07-18T03:11:38;2.73;;;2.53;;
7667;SDS011;3876;42.204;24.686;2022-07-18T03:14:05;3.07;;;2.77;;
7667;SDS011;3876;42.204;24.686;2022-07-18T03:16:32;2.43;;;2.23;;
7667;SDS011;3876;42.204;24.686;2022-07-18T03:19:00;2.63;;;2.43;;
7667;SDS011;3876;42.204;24.686;2022-07-18T03:21:28;3.23;;;2.30;;
7667;SDS011;3876;42.204;24.686;2022-07-18T03:23:55;3.03;;;2.10;;
7667;SDS011;3876;42.204;24.686;2022-07-18T03:26:22;1.93;;;1.83;;
7667;SDS011;3876;42.204;24.686;2022-07-18T03:28:49;3.90;;;2.00;;
7667;SDS011;3876;42.204;24.686;2022-07-18T03:31:16;1.70;;;1.70;;
7667;SDS011;3876;42.204;24.686;2022-07-18T03:33:43;2.50;;;2.30;;
7667;SDS011;3876;42.204;24.686;2022-07-18T03:36:10;2.70;;;2.57;;
7667;SDS011;3876;42.204;24.686;2022-07-18T03:38:38;2.17;;;2.00;;
7667;SDS011;3876;42.204;24.686;2022-07-18T03:41:08;3.43;;;1.90;;
7667;SDS011;3876;42.204;24.686;2022-07-18T03:43:35;2.00;;;1.90;;
7667;SDS011;3876;42.204;24.686;2022-07-18T03:46:02;2.20;;;2.10;;
7667;SDS011;3876;42.204;24.686;2022-07-18T03:48:29;3.00;;;1.97;;
7667;SDS011;3876;42.204;24.686;2022-07-18T03:50:56;2.47;;;2.37;;
7667;SDS011;3876;42.204;24.686;2022-07-18T03:53:22;3.13;;;1.97;;
7667;SDS011;3876;42.204;24.686;2022-07-18T03:55:51;3.60;;;1.70;;
7667;SDS011;3876;42.204;24.686;2022-07-18T03:58:18;1.93;;;1.87;;
7667;SDS011;3876;42.204;24.686;2022-07-18T04:00:44;2.07;;;1.93;;
7667;SDS011;3876;42.204;24.686;2022-07-18T04:03:11;2.43;;;2.10;;
7667;SDS011;3876;42.204;24.686;2022-07-18T04:05:38;4.50;;;2.30;;
7667;SDS011;3876;42.204;24.686;2022-07-18T04:08:05;1.83;;;1.73;;
7667;SDS011;3876;42.204;24.686;2022-07-18T04:10:32;2.13;;;2.03;;
7667;SDS011;3876;42.204;24.686;2022-07-18T04:13:00;8.10;;;2.00;;
7667;SDS011;3876;42.204;24.686;2022-07-18T04:15:27;3.13;;;1.73;;
7667;SDS011;3876;42.204;24.686;2022-07-18T04:17:56;1.53;;;1.53;;
7667;SDS011;3876;42.204;24.686;2022-07-18T04:20:23;2.00;;;1.90;;
7667;SDS011;3876;42.204;24.686;2022-07-18T04:22:51;1.70;;;1.70;;
7667;SDS011;3876;42.204;24.686;2022-07-18T04:25:19;6.17;;;2.53;;
7667;SDS011;3876;42.204;24.686;2022-07-18T04:27:47;1.77;;;1.67;;
7667;SDS011;3876;42.204;24.686;2022-07-18T04:30:17;1.83;;;1.37;;
7667;SDS011;3876;42.204;24.686;2022-07-18T04:32:45;1.77;;;1.67;;
7667;SDS011;3876;42.204;24.686;2022-07-18T04:35:12;2.87;;;2.50;;
7667;SDS011;3876;42.204;24.686;2022-07-18T04:37:39;1.27;;;1.27;;
7667;SDS011;3876;42.204;24.686;2022-07-18T04:40:07;2.60;;;1.87;;
7667;SDS011;3876;42.204;24.686;2022-07-18T04:42:35;1.80;;;1.67;;
7667;SDS011;3876;42.204;24.686;2022-07-18T04:45:02;3.50;;;1.33;;
7667;SDS011;3876;42.204;24.686;2022-07-18T04:47:32;1.30;;;1.30;;
7667;SDS011;3876;42.204;24.686;2022-07-18T04:49:59;2.40;;;1.37;;
7667;SDS011;3876;42.204;24.686;2022-07-18T04:52:26;1.63;;;1.60;;
7667;SDS011;3876;42.204;24.686;2022-07-18T04:54:53;2.60;;;1.47;;
7667;SDS011;3876;42.204;24.686;2022-07-18T04:57:19;1.80;;;1.50;;
7667;SDS011;3876;42.204;24.686;2022-07-18T04:59:46;5.43;;;1.40;;
7667;SDS011;3876;42.204;24.686;2022-07-18T05:02:13;1.50;;;1.40;;
7667;SDS011;3876;42.204;24.686;2022-07-18T05:04:41;4.30;;;1.63;;
7667;SDS011;3876;42.204;24.686;2022-07-18T05:07:08;1.47;;;1.40;;
7667;SDS011;3876;42.204;24.686;2022-07-18T05:09:35;1.47;;;1.37;;
7667;SDS011;3876;42.204;24.686;2022-07-18T05:12:02;1.17;;;1.17;;
7667;SDS011;3876;42.204;24.686;2022-07-18T05:14:29;1.10;;;1.10;;
7667;SDS011;3876;42.204;24.686;2022-07-18T05:16:56;1.40;;;0.97;;
7667;SDS011;3876;42.204;24.686;2022-07-18T05:19:23;1.03;;;1.03;;
7667;SDS011;3876;42.204;24.686;2022-07-18T05:21:51;1.37;;;1.37;;
7667;SDS011;3876;42.204;24.686;2022-07-18T05:24:18;1.13;;;1.00;;
7667;SDS011;3876;42.204;24.686;2022-07-18T05:26:45;2.17;;;1.13;;
7667;SDS011;3876;42.204;24.686;2022-07-18T05:29:12;1.07;;;1.07;;
7667;SDS011;3876;42.204;24.686;2022-07-18T05:31:39;1.13;;;1.13;;
7667;SDS011;3876;42.204;24.686;2022-07-18T05:34:06;1.07;;;1.07;;
7667;SDS011;3876;42.204;24.686;2022-07-18T05:36:33;1.10;;;1.10;;
7667;SDS011;3876;42.204;24.686;2022-07-18T05:39:02;1.60;;;1.13;;
7667;SDS011;3876;42.204;24.686;2022-07-18T05:41:29;0.90;;;0.90;;
7667;SDS011;3876;42.204;24.686;2022-07-18T05:43:56;0.90;;;0.90;;
7667;SDS011;3876;42.204;24.686;2022-07-18T05:46:23;0.80;;;0.80;;
7667;SDS011;3876;42.204;24.686;2022-07-18T05:48:49;1.80;;;0.90;;
7667;SDS011;3876;42.204;24.686;2022-07-18T05:51:17;2.33;;;1.07;;
7667;SDS011;3876;42.204;24.686;2022-07-18T05:53:46;19.37;;;2.60;;
7667;SDS011;3876;42.204;24.686;2022-07-18T05:56:15;16.13;;;2.93;;
7667;SDS011;3876;42.204;24.686;2022-07-18T05:58:42;9.37;;;1.37;;
7667;SDS011;3876;42.204;24.686;2022-07-18T06:01:09;1.87;;;1.10;;
7667;SDS011;3876;42.204;24.686;2022-07-18T06:03:36;3.93;;;1.40;;
7667;SDS011;3876;42.204;24.686;2022-07-18T06:06:03;0.80;;;0.80;;
7667;SDS011;3876;42.204;24.686;2022-07-18T06:08:30;0.70;;;0.70;;
7667;SDS011;3876;42.204;24.686;2022-07-18T06:10:56;1.60;;;1.60;;
7667;SDS011;3876;42.204;24.686;2022-07-18T06:13:25;0.80;;;0.80;;
7667;SDS011;3876;42.204;24.686;2022-07-18T06:15:52;1.63;;;0.80;;
7667;SDS011;3876;42.204;24.686;2022-07-18T06:18:18;0.90;;;0.90;;
7667;SDS011;3876;42.204;24.686;2022-07-18T06:20:45;0.90;;;0.90;;
7667;SDS011;3876;42.204;24.686;2022-07-18T06:23:12;1.95;;;1.00;;
7667;SDS011;3876;42.204;24.686;2022-07-18T06:25:39;1.10;;;1.00;;
7667;SDS011;3876;42.204;24.686;2022-07-18T06:28:06;1.63;;;1.40;;
7667;SDS011;3876;42.204;24.686;2022-07-18T06:30:34;0.80;;;0.80;;
7667;SDS011;3876;42.204;24.686;2022-07-18T06:33:01;0.70;;;0.70;;
7667;SDS011;3876;42.204;24.686;2022-07-18T06:35:31;1.02;;;1.02;;
7667;SDS011;3876;42.204;24.686;2022-07-18T06:37:57;0.93;;;0.93;;
7667;SDS011;3876;42.204;24.686;2022-07-18T06:40:24;0.90;;;0.90;;
7667;SDS011;3876;42.204;24.686;2022-07-18T06:42:51;0.80;;;0.80;;
7667;SDS011;3876;42.204;24.686;2022-07-18T06:45:18;0.70;;;0.70;;
7667;SDS011;3876;42.204;24.686;2022-07-18T06:47:46;0.80;;;0.80;;
7667;SDS011;3876;42.204;24.686;2022-07-18T06:50:13;0.90;;;0.90;;
7667;SDS011;3876;42.204;24.686;2022-07-18T06:52:41;1.35;;;1.30;;
7667;SDS011;3876;42.204;24.686;2022-07-18T06:55:09;0.95;;;0.95;;
7667;SDS011;3876;42.204;24.686;2022-07-18T06:57:36;0.80;;;0.80;;
7667;SDS011;3876;42.204;24.686;2022-07-18T07:00:03;1.25;;;1.25;;
7667;SDS011;3876;42.204;24.686;2022-07-18T07:02:32;0.88;;;0.88;;
7667;SDS011;3876;42.204;24.686;2022-07-18T07:05:00;0.93;;;0.93;;
7667;SDS011;3876;42.204;24.686;2022-07-18T07:07:27;2.20;;;1.00;;
7667;SDS011;3876;42.204;24.686;2022-07-18T07:09:54;0.80;;;0.80;;
7667;SDS011;3876;42.204;24.686;2022-07-18T07:12:21;2.88;;;1.00;;
7667;SDS011;3876;42.204;24.686;2022-07-18T07:14:48;0.65;;;0.65;;
7667;SDS011;3876;42.204;24.686;2022-07-18T07:17:14;0.77;;;0.77;;
7667;SDS011;3876;42.204;24.686;2022-07-18T07:19:41;0.85;;;0.85;;
7667;SDS011;3876;42.204;24.686;2022-07-18T07:22:09;0.80;;;0.80;;
7667;SDS011;3876;42.204;24.686;2022-07-18T07:24:36;0.80;;;0.80;;
7667;SDS011;3876;42.204;24.686;2022-07-18T07:27:05;1.00;;;1.00;;
7667;SDS011;3876;42.204;24.686;2022-07-18T07:29:32;0.73;;;0.73;;
7667;SDS011;3876;42.204;24.686;2022-07-18T07:31:58;1.52;;;1.10;;
7667;SDS011;3876;42.204;24.686;2022-07-18T07:34:26;1.10;;;1.00;;
7667;SDS011;3876;42.204;24.686;2022-07-18T07:36:53;0.70;;;0.70;;
7667;SDS011;3876;42.204;24.686;2022-07-18T07:39:21;2.20;;;0.85;;
7667;SDS011;3876;42.204;24.686;2022-07-18T07:41:48;1.30;;;1.20;;
7667;SDS011;3876;42.204;24.686;2022-07-18T07:44:15;4.60;;;1.05;;
7667;SDS011;3876;42.204;24.686;2022-07-18T07:46:42;0.95;;;0.75;;
7667;SDS011;3876;42.204;24.686;2022-07-18T07:49:09;1.00;;;1.00;;
7667;SDS011;3876;42.204;24.686;2022-07-18T07:51:36;0.82;;;0.82;;
7667;SDS011;3876;42.204;24.686;2022-07-18T07:54:03;0.80;;;0.80;;
7667;SDS011;3876;42.204;24.686;2022-07-18T07:56:32;0.80;;;0.80;;
7667;SDS011;3876;42.204;24.686;2022-07-18T07:58:59;0.85;;;0.85;;
7667;SDS011;3876;42.204;24.686;2022-07-18T08:01:26;0.90;;;0.90;;
7667;SDS011;3876;42.204;24.686;2022-07-18T08:03:53;2.20;;;0.80;;
7667;SDS011;3876;42.204;24.686;2022-07-18T08:06:20;0.88;;;0.88;;
7667;SDS011;3876;42.204;24.686;2022-07-18T08:08:46;1.02;;;0.63;;
7667;SDS011;3876;42.204;24.686;2022-07-18T08:11:13;0.93;;;0.93;;
7667;SDS011;3876;42.204;24.686;2022-07-18T08:13:42;0.70;;;0.70;;
7667;SDS011;3876;42.204;24.686;2022-07-18T08:16:09;0.80;;;0.80;;
7667;SDS011;3876;42.204;24.686;2022-07-18T08:18:36;1.70;;;0.93;;
7667;SDS011;3876;42.204;24.686;2022-07-18T08:21:03;0.93;;;0.93;;
7667;SDS011;3876;42.204;24.686;2022-07-18T08:23:29;1.58;;;0.75;;
7667;SDS011;3876;42.204;24.686;2022-07-18T08:25:56;0.80;;;0.80;;
7667;SDS011;3876;42.204;24.686;2022-07-18T08:28:23;0.80;;;0.80;;
7667;SDS011;3876;42.204;24.686;2022-07-18T08:30:51;1.05;;;1.05;;
7667;SDS011;3876;42.204;24.686;2022-07-18T08:33:18;0.73;;;0.73;;
7667;SDS011;3876;42.204;24.686;2022-07-18T08:35:45;1.25;;;1.25;;
7667;SDS011;3876;42.204;24.686;2022-07-18T08:38:12;5.10;;;1.50;;
7667;SDS011;3876;42.204;24.686;2022-07-18T08:40:39;1.30;;;1.15;;
7667;SDS011;3876;42.204;24.686;2022-07-18T08:43:06;1.10;;;1.10;;
7667;SDS011;3876;42.204;24.686;2022-07-18T08:45:33;5.40;;;1.40;;
7667;SDS011;3876;42.204;24.686;2022-07-18T08:48:02;1.50;;;1.40;;
7667;SDS011;3876;42.204;24.686;2022-07-18T08:50:29;1.08;;;1.08;;
7667;SDS011;3876;42.204;24.686;2022-07-18T08:52:57;0.98;;;0.98;;
7667;SDS011;3876;42.204;24.686;2022-07-18T08:55:25;1.23;;;1.17;;
7667;SDS011;3876;42.204;24.686;2022-07-18T08:57:52;1.00;;;1.00;;
7667;SDS011;3876;42.204;24.686;2022-07-18T09:00:19;1.05;;;1.00;;
7667;SDS011;3876;42.204;24.686;2022-07-18T09:02:49;1.20;;;1.20;;
7667;SDS011;3876;42.204;24.686;2022-07-18T09:05:24;1.25;;;1.20;;
7667;SDS011;3876;42.204;24.686;2022-07-18T09:07:50;1.58;;;1.20;;
7667;SDS011;3876;42.204;24.686;2022-07-18T09:10:17;0.98;;;0.98;;
7667;SDS011;3876;42.204;24.686;2022-07-18T09:12:55;1.20;;;1.20;;
7667;SDS011;3876;42.204;24.686;2022-07-18T09:15:22;4.15;;;1.55;;
7667;SDS011;3876;42.204;24.686;2022-07-18T09:17:49;1.35;;;1.25;;
7667;SDS011;3876;42.204;24.686;2022-07-18T09:20:16;1.33;;;1.02;;
7667;SDS011;3876;42.204;24.686;2022-07-18T09:22:46;1.10;;;1.00;;
7667;SDS011;3876;42.204;24.686;2022-07-18T09:25:14;1.10;;;1.10;;
7667;SDS011;3876;42.204;24.686;2022-07-18T09:27:42;1.88;;;1.17;;
7667;SDS011;3876;42.204;24.686;2022-07-18T09:30:12;1.50;;;1.23;;
7667;SDS011;3876;42.204;24.686;2022-07-18T09:32:51;2.83;;;1.40;;
7667;SDS011;3876;42.204;24.686;2022-07-18T09:35:21;1.60;;;1.50;;
7667;SDS011;3876;42.204;24.686;2022-07-18T09:37:56;1.30;;;1.13;;
7667;SDS011;3876;42.204;24.686;2022-07-18T09:40:27;1.40;;;1.33;;
7667;SDS011;3876;42.204;24.686;2022-07-18T09:42:56;1.45;;;1.35;;
7667;SDS011;3876;42.204;24.686;2022-07-18T09:45:25;1.40;;;1.40;;
7667;SDS011;3876;42.204;24.686;2022-07-18T09:47:54;2.00;;;1.10;;
7667;SDS011;3876;42.204;24.686;2022-07-18T09:53:14;1.15;;;1.15;;
7667;SDS011;3876;42.204;24.686;2022-07-18T09:55:42;3.00;;;1.85;;
7667;SDS011;3876;42.204;24.686;2022-07-18T09:58:11;2.65;;;1.40;;
7667;SDS011;3876;42.204;24.686;2022-07-18T10:00:40;1.55;;;1.45;;
7667;SDS011;3876;42.204;24.686;2022-07-18T10:03:08;1.45;;;1.45;;
7667;SDS011;3876;42.204;24.686;2022-07-18T10:05:35;1.20;;;1.20;;
7667;SDS011;3876;42.204;24.686;2022-07-18T10:08:05;1.00;;;1.00;;
7667;SDS011;3876;42.204;24.686;2022-07-18T10:10:35;1.70;;;1.15;;
7667;SDS011;3876;42.204;24.686;2022-07-18T10:13:03;1.63;;;1.63;;
7667;SDS011;3876;42.204;24.686;2022-07-18T10:15:32;4.65;;;1.20;;
7667;SDS011;3876;42.204;24.686;2022-07-18T10:18:01;1.88;;;1.15;;
7667;SDS011;3876;42.204;24.686;2022-07-18T10:20:34;2.20;;;1.67;;
7667;SDS011;3876;42.204;24.686;2022-07-18T10:23:16;2.35;;;1.60;;
7667;SDS011;3876;42.204;24.686;2022-07-18T10:25:46;1.92;;;1.30;;
7667;SDS011;3876;42.204;24.686;2022-07-18T10:31:40;1.40;;;1.30;;
7667;SDS011;3876;42.204;24.686;2022-07-18T10:34:26;1.33;;;1.33;;
7667;SDS011;3876;42.204;24.686;2022-07-18T10:39:49;1.83;;;1.75;;
7667;SDS011;3876;42.204;24.686;2022-07-18T10:42:21;2.13;;;1.90;;
7667;SDS011;3876;42.204;24.686;2022-07-18T10:44:49;2.35;;;1.70;;
7667;SDS011;3876;42.204;24.686;2022-07-18T10:47:18;1.25;;;1.25;;
7667;SDS011;3876;42.204;24.686;2022-07-18T10:52:57;1.65;;;1.55;;
7667;SDS011;3876;42.204;24.686;2022-07-18T10:55:28;1.83;;;1.73;;
7667;SDS011;3876;42.204;24.686;2022-07-18T10:58:16;1.42;;;1.35;;
7667;SDS011;3876;42.204;24.686;2022-07-18T11:00:48;1.85;;;1.65;;
7667;SDS011;3876;42.204;24.686;2022-07-18T11:03:18;1.70;;;1.60;;
7667;SDS011;3876;42.204;24.686;2022-07-18T11:05:53;2.35;;;2.28;;
7667;SDS011;3876;42.204;24.686;2022-07-18T11:08:21;1.60;;;1.45;;
7667;SDS011;3876;42.204;24.686;2022-07-18T11:11:05;1.58;;;1.48;;
7667;SDS011;3876;42.204;24.686;2022-07-18T11:13:38;1.40;;;1.40;;
7667;SDS011;3876;42.204;24.686;2022-07-18T11:16:10;1.77;;;1.67;;
7667;SDS011;3876;42.204;24.686;2022-07-18T11:21:44;1.83;;;1.73;;
7667;SDS011;3876;42.204;24.686;2022-07-18T11:24:11;1.85;;;1.75;;
7667;SDS011;3876;42.204;24.686;2022-07-18T11:26:42;1.98;;;1.88;;
7667;SDS011;3876;42.204;24.686;2022-07-18T11:29:12;1.70;;;1.60;;
7667;SDS011;3876;42.204;24.686;2022-07-18T11:31:44;1.88;;;1.77;;
7667;SDS011;3876;42.204;24.686;2022-07-18T11:34:12;1.70;;;1.70;;
7667;SDS011;3876;42.204;24.686;2022-07-18T11:36:40;1.92;;;1.83;;
7667;SDS011;3876;42.204;24.686;2022-07-18T11:39:09;1.60;;;1.50;;
7667;SDS011;3876;42.204;24.686;2022-07-18T11:41:36;2.13;;;2.03;;
7667;SDS011;3876;42.204;24.686;2022-07-18T11:44:03;1.95;;;1.85;;
7667;SDS011;3876;42.204;24.686;2022-07-18T11:46:32;1.85;;;1.75;;
7667;SDS011;3876;42.204;24.686;2022-07-18T11:48:59;2.13;;;1.80;;
7667;SDS011;3876;42.204;24.686;2022-07-18T11:51:33;3.28;;;1.92;;
7667;SDS011;3876;42.204;24.686;2022-07-18T11:54:01;2.53;;;2.33;;
7667;SDS011;3876;42.204;24.686;2022-07-18T11:56:28;2.13;;;2.03;;
7667;SDS011;3876;42.204;24.686;2022-07-18T11:58:55;2.22;;;2.00;;
7667;SDS011;3876;42.204;24.686;2022-07-18T12:01:29;2.30;;;2.20;;
7667;SDS011;3876;42.204;24.686;2022-07-18T12:03:58;2.38;;;2.20;;
7667;SDS011;3876;42.204;24.686;2022-07-18T12:06:27;1.90;;;1.70;;
7667;SDS011;3876;42.204;24.686;2022-07-18T12:08:54;1.52;;;1.42;;
7667;SDS011;3876;42.204;24.686;2022-07-18T12:11:26;2.33;;;2.22;;
7667;SDS011;3876;42.204;24.686;2022-07-18T12:13:54;1.85;;;1.75;;
7667;SDS011;3876;42.204;24.686;2022-07-18T12:16:25;4.00;;;1.80;;
7667;SDS011;3876;42.204;24.686;2022-07-18T12:18:59;1.92;;;1.83;;
7667;SDS011;3876;42.204;24.686;2022-07-18T12:21:38;2.03;;;1.88;;
7667;SDS011;3876;42.204;24.686;2022-07-18T12:24:19;2.05;;;1.95;;
7667;SDS011;3876;42.204;24.686;2022-07-18T12:29:54;2.17;;;2.08;;
7667;SDS011;3876;42.204;24.686;2022-07-18T12:32:24;2.45;;;2.35;;
7667;SDS011;3876;42.204;24.686;2022-07-18T12:34:56;2.00;;;1.90;;
7667;SDS011;3876;42.204;24.686;2022-07-18T12:37:26;1.77;;;1.67;;
7667;SDS011;3876;42.204;24.686;2022-07-18T12:39:58;3.08;;;2.20;;
7667;SDS011;3876;42.204;24.686;2022-07-18T12:42:30;2.20;;;2.10;;
7667;SDS011;3876;42.204;24.686;2022-07-18T12:44:59;2.38;;;2.28;;
7667;SDS011;3876;42.204;24.686;2022-07-18T12:47:26;3.30;;;3.00;;
7667;SDS011;3876;42.204;24.686;2022-07-18T12:49:53;2.03;;;1.92;;
7667;SDS011;3876;42.204;24.686;2022-07-18T12:52:21;3.08;;;2.20;;
7667;SDS011;3876;42.204;24.686;2022-07-18T12:54:49;1.83;;;1.73;;
7667;SDS011;3876;42.204;24.686;2022-07-18T12:57:16;2.30;;;2.08;;
7667;SDS011;3876;42.204;24.686;2022-07-18T12:59:45;2.60;;;2.50;;
7667;SDS011;3876;42.204;24.686;2022-07-18T13:02:12;2.05;;;1.95;;
7667;SDS011;3876;42.204;24.686;2022-07-18T13:04:40;3.55;;;2.50;;
7667;SDS011;3876;42.204;24.686;2022-07-18T13:07:07;1.95;;;1.85;;
7667;SDS011;3876;42.204;24.686;2022-07-18T13:09:35;1.83;;;1.83;;
7667;SDS011;3876;42.204;24.686;2022-07-18T13:12:02;5.22;;;1.83;;
7667;SDS011;3876;42.204;24.686;2022-07-18T13:14:30;2.58;;;1.88;;
7667;SDS011;3876;42.204;24.686;2022-07-18T13:16:57;2.05;;;1.95;;
7667;SDS011;3876;42.204;24.686;2022-07-18T13:19:23;2.08;;;1.98;;
7667;SDS011;3876;42.204;24.686;2022-07-18T13:21:50;2.20;;;2.10;;
7667;SDS011;3876;42.204;24.686;2022-07-18T13:24:17;2.35;;;2.25;;
7667;SDS011;3876;42.204;24.686;2022-07-18T13:26:45;2.60;;;2.33;;
7667;SDS011;3876;42.204;24.686;2022-07-18T13:29:12;2.33;;;2.22;;
7667;SDS011;3876;42.204;24.686;2022-07-18T13:31:39;2.10;;;2.00;;
7667;SDS011;3876;42.204;24.686;2022-07-18T13:34:05;3.22;;;2.28;;
7667;SDS011;3876;42.204;24.686;2022-07-18T13:36:32;2.78;;;2.67;;
7667;SDS011;3876;42.204;24.686;2022-07-18T13:38:59;2.50;;;2.33;;
7667;SDS011;3876;42.204;24.686;2022-07-18T13:41:27;2.13;;;2.03;;
7667;SDS011;3876;42.204;24.686;2022-07-18T13:43:56;4.15;;;2.13;;
7667;SDS011;3876;42.204;24.686;2022-07-18T13:46:23;2.45;;;2.35;;
7667;SDS011;3876;42.204;24.686;2022-07-18T13:48:50;2.40;;;2.30;;
7667;SDS011;3876;42.204;24.686;2022-07-18T13:51:17;2.15;;;2.05;;
7667;SDS011;3876;42.204;24.686;2022-07-18T13:53:43;2.30;;;2.17;;
7667;SDS011;3876;42.204;24.686;2022-07-18T13:56:10;2.55;;;2.17;;
7667;SDS011;3876;42.204;24.686;2022-07-18T13:58:37;2.28;;;2.10;;
7667;SDS011;3876;42.204;24.686;2022-07-18T14:01:05;2.33;;;1.95;;
7667;SDS011;3876;42.204;24.686;2022-07-18T14:03:33;2.58;;;2.47;;
7667;SDS011;3876;42.204;24.686;2022-07-18T14:06:00;2.90;;;2.05;;
7667;SDS011;3876;42.204;24.686;2022-07-18T14:08:27;2.20;;;2.10;;
7667;SDS011;3876;42.204;24.686;2022-07-18T14:10:53;2.33;;;2.22;;
7667;SDS011;3876;42.204;24.686;2022-07-18T14:13:20;2.63;;;2.50;;
7667;SDS011;3876;42.204;24.686;2022-07-18T14:15:47;3.63;;;2.78;;
7667;SDS011;3876;42.204;24.686;2022-07-18T14:18:15;2.70;;;2.60;;
7667;SDS011;3876;42.204;24.686;2022-07-18T14:20:42;2.33;;;2.22;;
7667;SDS011;3876;42.204;24.686;2022-07-18T14:23:09;2.65;;;2.50;;
7667;SDS011;3876;42.204;24.686;2022-07-18T14:25:36;2.40;;;2.30;;
7667;SDS011;3876;42.204;24.686;2022-07-18T14:28:03;3.28;;;3.13;;
7667;SDS011;3876;42.204;24.686;2022-07-18T14:30:31;2.83;;;2.63;;
7667;SDS011;3876;42.204;24.686;2022-07-18T14:32:58;2.50;;;2.38;;
7667;SDS011;3876;42.204;24.686;2022-07-18T14:35:26;2.42;;;2.22;;
7667;SDS011;3876;42.204;24.686;2022-07-18T14:37:53;4.55;;;2.80;;
7667;SDS011;3876;42.204;24.686;2022-07-18T14:40:20;2.60;;;2.50;;
7667;SDS011;3876;42.204;24.686;2022-07-18T14:42:47;3.17;;;2.78;;
7667;SDS011;3876;42.204;24.686;2022-07-18T14:45:15;3.20;;;2.50;;
7667;SDS011;3876;42.204;24.686;2022-07-18T14:47:42;2.85;;;2.75;;
7667;SDS011;3876;42.204;24.686;2022-07-18T14:50:09;2.42;;;2.33;;
7667;SDS011;3876;42.204;24.686;2022-07-18T14:52:38;2.50;;;2.40;;
7667;SDS011;3876;42.204;24.686;2022-07-18T14:55:06;2.78;;;2.63;;
7667;SDS011;3876;42.204;24.686;2022-07-18T14:57:34;2.70;;;2.55;;
7667;SDS011;3876;42.204;24.686;2022-07-18T15:00:03;2.15;;;2.03;;
7667;SDS011;3876;42.204;24.686;2022-07-18T15:02:31;2.80;;;2.60;;
7667;SDS011;3876;42.204;24.686;2022-07-18T15:04:58;2.83;;;2.70;;
7667;SDS011;3876;42.204;24.686;2022-07-18T15:07:25;2.70;;;2.53;;
7667;SDS011;3876;42.204;24.686;2022-07-18T15:09:53;3.00;;;2.80;;
7667;SDS011;3876;42.204;24.686;2022-07-18T15:12:20;3.08;;;2.90;;
7667;SDS011;3876;42.204;24.686;2022-07-18T15:14:46;2.60;;;2.50;;
7667;SDS011;3876;42.204;24.686;2022-07-18T15:17:14;3.03;;;2.83;;
7667;SDS011;3876;42.204;24.686;2022-07-18T15:19:40;2.90;;;2.70;;
7667;SDS011;3876;42.204;24.686;2022-07-18T15:22:07;6.45;;;3.20;;
7667;SDS011;3876;42.204;24.686;2022-07-18T15:24:34;5.75;;;3.63;;